Republica Dominicana

vuelo de bajo nivel

VUELOS DE BAJO NIVEL DESDE SUPERFICIE HASTA 24,000 PIES.

VALIDO DESDE 111200Z ...………………………HASTA 120000Z

SALIDA  Y  PUESTA  DEL  SOL  06:20 / 19:08

 

SANTO DOMINGO FIR...PORT-AU-PRINCE FIR.. .HISPANIOLA...SCT020 SCT060. LYRS OCNL BKN TOP FL200. WDLY SCT SHRA/ISOL TSRA. OTLK...VFR SHRA TSRA...02Z VFR SHRA.WTRS W OF 72W...SCT020 SCT060. LYRS OCNL BKN TOP ABV FL240. WDLY SCT SHRA/TSRA. OTLK...VFR SHRA.WTRS E OF 72W...SCT030 SCT060. ISOL SHRA. OTLK...VFR SHRA. ICE AND FRZLVL...NO SGFNT ICE EXP OUTSIDE CNVTV ACT.FRZLVL... SRN GLFMEX...155 TO 165. CARIB... (S OF 20N)...155 TO 175. WRN ATLC (N OF 20N)...145 N TO 170 S..TURB...NO SGFNT TURB EXP OUTSIDE CNVTV ACT.

 

5,000 FT.

10,000 FT.

18,000 FT.

24,000 FT.

MDSD

1115KT+19ºC

0815KT+11ºC

1410KT+05ºC

1910KT-16ºC

MTPP

1315KT+19ºC

0915KT+11ºC

1410KT+05ºC

1910KT-16ºC

TJSJ

0915KT+19ºC

0715KT+11ºC

1410KT+04ºC

1805KT-15ºC

TAF MDPP 111000Z 1112/1212 00000KT 9999 SCT018 SCT300 BECMG 1113/1115 09014KT=

TAF MDST 111000Z 1112/1212 13012KT 9999 SCT018 BECMG 1112/1114 00000KT=

TAF MDPC 111000Z 1112/1212 07010KT 9999 FEW020 SCT080 PROB30 1115/1121 7000 -RA FEW016CB SCT018 BKN070=

TAF MDBH 111000Z 1112/1212 13010KT 9999 FEW018CB SCT020 SCT300=

TAF MDJB 111000Z 1112/1212 36005KT 9999 SCT020 SCT300 BECMG 1116/1118 18012KT=

TAF MDSD 111000Z 1112/1212 03005KT 9999 FEW018CB SCT020 BECMG 1115/1117 13010KT=

TAF MDLR 111000Z 1112/1212 09008KT 9999 SCT018 BECMG 1114/1116 11010KT=

TAF MDCY 111000Z 1112/1212 08005KT 9999 FEW018 SCT300 PROB30 1113/1118 8000 VCSH BKN016=

KMIA 110913Z 1109/1212 VRB04KT P6SM SCT025 SCT250 FM111000 VRB05KT P6SM VCSH SCT020 SCT100
FM111500 10007KT P6SM VCTS SCT025CB SCT100 FM111900 11010KT P6SM SCT030 SCT250 FM120500 11004KT P6SM FEW020 SCT250

KJFK 110833Z 1109/1212 21005KT P6SM FEW008 FM111300 20007KT P6SM FEW050 FM111800 18014KT P6SM SCT050 FM120100 20008KT P6SM FEW050 SCT250 FM120600 21005KT 4SM BR FEW025 BKN040

TJSJ 110530Z 1106/1206 10010KT P6SM VCSH FEW025 SCT035 SCT060 FM111400 06014KT P6SM SCT030 SCT050 FM112200 09012KT P6SM FEW035 SCT050

TAF MKJP 110515Z 1106/1206 33006KT 9999 FEW022 BECMG 1115/1117 14020KT PROB40 TEMPO 1119/1123 SHRA BKN018 FEW020CB BECMG 1202/1204 36004KT

MUHA 110500Z 1106/1206 07005KT 9000 SCT030 TEMPO 1118/1124 VRB10KT 4000 TSRA SCT018CB BKN020

TAF MUGM 1107/1207 34008KT 9999 VCSH FEW025 SCT250 QNH2986INS BECMG 1115/1117 12015G25KT 9999 NSW FEW030 SCT060 BKN250 540009 QNH2985INS BECMG 1202/1204 35010KT 9999 FEW150 SCT250 500000 QNH2987INS T25/1109Z T33/1118Z FN00223

TAF TNCC 110500Z 1106/1206 10012KT 9999 SCT018 TEMPO 1106/1114 BKN014

TAF TFFR 110500Z 1106/1206 12010KT 9999 SCT030 PROB40 1106/1112 VRB02KT PROB40 TEMPO 1115/1124 4000 SHRA BKN018TCU TEMPO 1200/1206 3000 SHRA BKN018TCU PROB30 TEMPO 1200/1206 VRB15G25KT 1200 TSRA SCT008 BKN012CB

  

PREPARADO POR: HENRIQUEZ A. 11 de Agosto del 2020.-




Tamaño letra

Contraste

Otros